Time;durP1;ratioP1;P1;durP2;ratioP2;P2;SDS_P1;SDS_P2;PMS_P1;PMS_P2;Temp;Humidity;BMP_temperature;BMP_pressure;BME280_temperature;BME280_humidity;BME280_pressure;Samples;Min_cycle;Max_cycle;Signal;HPM_P1;HPM_P2
2022/07/16 00:01:57;;;;;;;1.50;0.80;;;16.80;96.40;;;;;;4967666;28;20078;-43
2022/07/16 00:04:23;;;;;;;1.65;0.80;;;16.70;96.40;;;;;;4967725;28;20521;-44
2022/07/16 00:06:48;;;;;;;3.20;0.90;;;16.70;96.90;;;;;;4969441;28;20604;-44
2022/07/16 00:09:14;;;;;;;4.30;0.75;;;16.70;96.60;;;;;;4967664;28;20042;-44
2022/07/16 00:11:40;;;;;;;2.28;0.88;;;16.60;97.20;;;;;;4970922;28;20049;-43
2022/07/16 00:14:06;;;;;;;2.25;0.90;;;16.60;96.70;;;;;;4968383;28;20133;-43
2022/07/16 00:16:31;;;;;;;5.20;1.17;;;16.60;96.70;;;;;;4967387;28;20070;-44
2022/07/16 00:19:15;;;;;;;2.40;0.90;;;16.60;96.90;;;;;;4969315;28;20140;-43
2022/07/16 00:21:42;;;;;;;2.97;1.17;;;16.60;97.20;;;;;;4968981;28;20054;-43
2022/07/16 00:24:08;;;;;;;2.47;0.88;;;16.50;97.40;;;;;;4968477;28;20042;-42
2022/07/16 00:26:35;;;;;;;2.78;1.20;;;16.50;97.80;;;;;;4968943;28;20122;-42
2022/07/16 00:29:00;;;;;;;4.75;1.25;;;16.50;97.80;;;;;;4967594;28;20039;-42
2022/07/16 00:31:26;;;;;;;3.20;1.05;;;16.50;97.60;;;;;;4969468;28;20047;-44
2022/07/16 00:33:52;;;;;;;3.50;1.17;;;16.50;98.00;;;;;;4969994;28;20074;-43
2022/07/16 00:36:17;;;;;;;3.38;0.80;;;16.50;98.20;;;;;;4965580;28;20089;-44
2022/07/16 00:38:43;;;;;;;3.97;0.93;;;16.50;98.20;;;;;;4968378;28;20112;-45
2022/07/16 00:41:16;;;;;;;2.63;1.10;;;16.60;98.50;;;;;;4965569;28;20113;-43
2022/07/16 00:43:56;;;;;;;1.58;0.98;;;16.50;98.70;;;;;;4967403;28;20073;-44
2022/07/16 00:46:21;;;;;;;2.05;1.00;;;16.50;99.50;;;;;;4967517;28;20047;-43
2022/07/16 00:48:47;;;;;;;3.47;1.33;;;16.50;99.20;;;;;;4968739;28;20074;-43
2022/07/16 00:51:15;;;;;;;2.30;1.05;;;16.40;99.30;;;;;;4969275;28;20039;-48
2022/07/16 00:53:42;;;;;;;3.05;1.23;;;16.40;99.90;;;;;;4967559;28;20047;-45
2022/07/16 00:56:11;;;;;;;2.83;1.25;;;16.30;99.90;;;;;;4967368;28;20061;-42
2022/07/16 00:58:39;;;;;;;2.40;1.10;;;16.30;99.90;;;;;;4969519;28;20043;-45
2022/07/16 01:01:05;;;;;;;2.88;1.20;;;16.40;99.90;;;;;;4966951;28;20047;-42
2022/07/16 01:03:32;;;;;;;4.50;1.52;;;16.40;99.90;;;;;;4968414;28;20126;-44
2022/07/16 01:05:58;;;;;;;2.85;1.27;;;16.40;99.90;;;;;;4969486;28;20071;-44
2022/07/16 01:08:25;;;;;;;2.20;1.00;;;16.40;99.90;;;;;;4968745;28;20058;-44
2022/07/16 01:10:51;;;;;;;2.30;1.20;;;16.50;99.90;;;;;;4967965;28;20142;-43
2022/07/16 01:13:17;;;;;;;3.08;1.20;;;16.50;99.90;;;;;;4966972;28;20198;-44
2022/07/16 01:15:43;;;;;;;6.15;1.40;;;16.40;99.90;;;;;;4967271;28;20042;-44
2022/07/16 01:18:09;;;;;;;4.80;1.50;;;16.40;99.90;;;;;;4967806;28;20049;-45
2022/07/16 01:20:35;;;;;;;2.45;0.93;;;16.40;99.90;;;;;;4967945;28;20103;-45
2022/07/16 01:23:02;;;;;;;1.80;0.82;;;16.50;99.90;;;;;;4967145;28;20043;-42
2022/07/16 01:25:27;;;;;;;3.22;1.00;;;16.60;99.90;;;;;;4967949;28;20046;-44
2022/07/16 01:27:53;;;;;;;2.35;0.85;;;16.70;99.90;;;;;;4966560;28;20038;-45
2022/07/16 01:30:19;;;;;;;4.72;0.93;;;16.90;99.90;;;;;;4967917;28;20038;-44
2022/07/16 01:32:44;;;;;;;2.78;0.90;;;17.10;99.90;;;;;;4968417;28;20043;-43
2022/07/16 01:35:10;;;;;;;3.05;1.20;;;17.20;99.90;;;;;;4968581;28;20054;-44
2022/07/16 01:37:36;;;;;;;5.63;1.02;;;17.30;99.90;;;;;;4967067;28;20031;-45
2022/07/16 01:40:03;;;;;;;5.20;1.20;;;17.40;99.90;;;;;;4965472;28;20244;-42
2022/07/16 01:42:29;;;;;;;4.20;1.13;;;17.40;99.90;;;;;;4967679;28;20097;-41
2022/07/16 01:44:55;;;;;;;4.68;1.40;;;17.40;99.90;;;;;;4966706;28;20524;-41
2022/07/16 01:47:20;;;;;;;3.60;1.10;;;17.30;99.90;;;;;;4965428;28;20130;-44
2022/07/16 01:49:46;;;;;;;4.55;1.40;;;17.20;99.90;;;;;;4968879;28;20030;-43
2022/07/16 01:52:15;;;;;;;7.78;1.40;;;17.10;99.90;;;;;;4967878;28;20076;-42
2022/07/16 01:54:44;;;;;;;3.83;1.25;;;17.00;99.90;;;;;;4964556;28;20058;-41
2022/07/16 01:57:10;;;;;;;3.03;1.25;;;17.00;99.90;;;;;;4966655;28;20127;-42
2022/07/16 01:59:37;;;;;;;3.60;1.38;;;16.90;99.90;;;;;;4965522;28;20167;-42
2022/07/16 02:02:03;;;;;;;5.03;1.50;;;16.90;99.90;;;;;;4962858;28;20819;-42
2022/07/16 02:04:28;;;;;;;4.85;1.52;;;16.80;99.90;;;;;;4964046;28;20058;-42
2022/07/16 02:06:54;;;;;;;2.75;1.20;;;16.80;99.90;;;;;;4965550;28;20073;-45
2022/07/16 02:09:19;;;;;;;4.53;1.33;;;16.80;99.90;;;;;;4962845;28;20060;-42
2022/07/16 02:11:45;;;;;;;3.00;0.80;;;16.70;99.90;;;;;;4966173;28;20205;-41
2022/07/16 02:14:11;;;;;;;2.30;1.13;;;16.70;99.90;;;;;;4967311;28;20519;-44
2022/07/16 02:16:37;;;;;;;1.77;1.00;;;16.60;99.90;;;;;;4965940;28;20062;-43
2022/07/16 02:19:02;;;;;;;4.22;0.95;;;16.60;99.90;;;;;;4967193;28;20047;-43
2022/07/16 02:21:29;;;;;;;2.50;1.10;;;16.50;99.90;;;;;;4966975;28;20591;-43
2022/07/16 02:23:55;;;;;;;3.88;1.25;;;16.50;99.90;;;;;;4965529;28;20043;-42
2022/07/16 02:26:20;;;;;;;2.30;1.30;;;16.40;99.90;;;;;;4981619;28;20174;-41
2022/07/16 02:28:46;;;;;;;3.13;0.77;;;16.40;99.90;;;;;;4968922;28;20392;-45
2022/07/16 02:31:12;;;;;;;3.75;1.00;;;16.40;99.90;;;;;;4967219;28;20154;-42
2022/07/16 02:33:37;;;;;;;2.25;0.77;;;16.30;99.90;;;;;;4965236;28;20457;-47
2022/07/16 02:36:03;;;;;;;2.40;0.80;;;16.30;99.90;;;;;;4965565;28;20034;-49
2022/07/16 02:38:29;;;;;;;2.30;0.70;;;16.20;99.90;;;;;;4963440;28;20043;-41
2022/07/16 02:40:54;;;;;;;3.97;0.70;;;16.20;99.90;;;;;;4967368;28;20030;-43
2022/07/16 02:43:20;;;;;;;6.28;0.90;;;16.20;99.90;;;;;;4965003;28;20043;-46
2022/07/16 02:45:46;;;;;;;4.85;1.05;;;16.20;99.90;;;;;;4967011;28;20047;-42
2022/07/16 02:48:12;;;;;;;3.85;1.10;;;16.10;99.90;;;;;;4966376;28;20035;-45
2022/07/16 02:50:39;;;;;;;4.10;0.82;;;16.10;99.90;;;;;;4967346;28;20482;-42
2022/07/16 02:53:05;;;;;;;5.82;1.27;;;16.10;99.90;;;;;;4964407;28;20110;-44
2022/07/16 02:55:31;;;;;;;3.03;0.90;;;16.10;99.90;;;;;;4966921;28;20122;-46
2022/07/16 02:57:57;;;;;;;3.60;0.70;;;16.00;99.90;;;;;;4966187;28;20117;-44
2022/07/16 03:00:23;;;;;;;3.13;0.77;;;16.00;99.90;;;;;;4965791;28;20066;-45
2022/07/16 03:02:48;;;;;;;5.30;0.60;;;15.90;99.90;;;;;;4966010;28;20062;-50
2022/07/16 03:05:14;;;;;;;2.92;0.75;;;15.90;99.90;;;;;;4966130;28;20055;-41
2022/07/16 03:07:40;;;;;;;4.18;0.77;;;16.00;99.90;;;;;;4964429;28;20042;-41
2022/07/16 03:10:08;;;;;;;2.33;0.70;;;15.90;99.90;;;;;;4966758;28;20049;-47
2022/07/16 03:12:33;;;;;;;3.97;0.80;;;15.90;99.90;;;;;;4964908;28;20500;-41
2022/07/16 03:15:02;;;;;;;1.33;0.60;;;15.90;99.90;;;;;;4965172;28;20047;-44
2022/07/16 03:17:27;;;;;;;1.88;0.70;;;15.90;99.90;;;;;;4959506;28;20042;-42
2022/07/16 03:19:53;;;;;;;3.20;0.80;;;15.90;99.90;;;;;;4964721;28;20046;-56
2022/07/16 03:22:19;;;;;;;3.53;0.80;;;15.90;99.90;;;;;;4963070;28;20274;-42
2022/07/16 03:24:44;;;;;;;2.08;0.60;;;15.90;99.90;;;;;;4961807;28;20042;-45
2022/07/16 03:27:11;;;;;;;2.00;0.70;;;15.90;99.90;;;;;;4956699;28;20061;-41
2022/07/16 03:29:37;;;;;;;2.85;0.60;;;15.90;99.90;;;;;;4961912;28;20450;-44
2022/07/16 03:32:02;;;;;;;3.28;0.85;;;15.90;99.90;;;;;;4965747;28;20551;-43
2022/07/16 03:34:28;;;;;;;1.88;0.47;;;15.80;99.90;;;;;;4964940;28;20493;-43
2022/07/16 03:36:54;;;;;;;2.58;0.90;;;15.80;99.90;;;;;;4968534;28;20073;-47
2022/07/16 03:39:19;;;;;;;2.03;0.50;;;15.80;99.90;;;;;;4969431;28;20026;-43
2022/07/16 03:41:45;;;;;;;2.58;0.50;;;15.80;99.90;;;;;;4968968;28;20050;-44
2022/07/16 03:44:12;;;;;;;2.88;0.80;;;15.80;99.90;;;;;;4968517;28;20105;-42
2022/07/16 03:46:39;;;;;;;2.97;0.50;;;15.80;99.90;;;;;;4969065;28;20050;-44
2022/07/16 03:49:05;;;;;;;1.85;0.60;;;15.80;99.90;;;;;;4966600;28;20054;-45
2022/07/16 03:51:31;;;;;;;3.40;0.63;;;15.70;99.90;;;;;;4967764;28;20035;-42
2022/07/16 03:53:57;;;;;;;4.13;0.70;;;15.80;99.90;;;;;;4963885;28;20512;-43
2022/07/16 03:56:24;;;;;;;3.88;0.65;;;15.80;99.90;;;;;;4967225;28;20184;-44
2022/07/16 03:58:50;;;;;;;2.65;0.65;;;15.80;99.90;;;;;;4968324;28;20400;-41
2022/07/16 04:01:16;;;;;;;3.58;0.85;;;15.80;99.90;;;;;;4981860;28;20469;-44
2022/07/16 04:03:42;;;;;;;4.03;0.85;;;15.80;99.90;;;;;;4970046;28;20126;-50
2022/07/16 04:06:08;;;;;;;1.75;0.73;;;15.80;99.90;;;;;;4967631;28;20416;-48
2022/07/16 04:08:34;;;;;;;1.60;0.50;;;15.70;99.90;;;;;;4971610;28;20516;-43
2022/07/16 04:11:01;;;;;;;4.13;0.60;;;15.70;99.90;;;;;;4969576;28;20042;-43
2022/07/16 04:13:27;;;;;;;3.22;0.70;;;15.70;99.90;;;;;;4969632;28;20129;-42
2022/07/16 04:15:53;;;;;;;4.07;0.82;;;15.60;99.90;;;;;;4971127;28;20039;-42
2022/07/16 04:18:20;;;;;;;4.18;0.63;;;15.60;99.90;;;;;;4969056;28;20054;-41
2022/07/16 04:20:46;;;;;;;2.60;0.60;;;15.50;99.90;;;;;;4970923;28;20146;-41
2022/07/16 04:23:12;;;;;;;3.45;0.70;;;15.50;99.90;;;;;;4969174;28;20034;-48
2022/07/16 04:25:38;;;;;;;3.33;0.60;;;15.50;99.90;;;;;;4970092;28;20035;-42
2022/07/16 04:28:04;;;;;;;2.47;0.63;;;15.50;99.90;;;;;;4965908;28;20141;-43
2022/07/16 04:30:30;;;;;;;1.95;0.60;;;15.50;99.90;;;;;;4982659;28;20150;-42
2022/07/16 04:32:56;;;;;;;2.13;0.85;;;15.40;99.90;;;;;;4970711;28;20038;-46
2022/07/16 04:35:22;;;;;;;1.83;0.70;;;15.40;99.90;;;;;;4967511;28;20067;-42
2022/07/16 04:37:48;;;;;;;2.55;0.60;;;15.40;99.90;;;;;;4969634;28;20516;-41
2022/07/16 04:40:15;;;;;;;3.30;0.60;;;15.40;99.90;;;;;;4968589;28;20070;-43
2022/07/16 04:42:42;;;;;;;3.17;0.70;;;15.50;99.90;;;;;;4949399;28;20185;-45
2022/07/16 04:45:10;;;;;;;4.53;0.63;;;15.50;99.90;;;;;;4964630;28;20065;-42
2022/07/16 04:47:36;;;;;;;3.30;0.70;;;15.50;99.90;;;;;;4968620;28;20567;-42
2022/07/16 04:50:03;;;;;;;2.53;0.70;;;15.50;99.90;;;;;;4967514;28;20147;-44
2022/07/16 04:52:30;;;;;;;5.55;0.65;;;15.50;99.90;;;;;;4967746;28;20061;-42
2022/07/16 04:54:57;;;;;;;3.33;0.65;;;15.50;99.90;;;;;;4968644;28;20043;-43
2022/07/16 04:57:24;;;;;;;2.00;0.50;;;15.50;99.90;;;;;;4967970;28;20074;-43
2022/07/16 04:59:50;;;;;;;3.08;0.60;;;15.50;99.90;;;;;;4967020;28;20118;-48
2022/07/16 05:05:00;;;;;;;5.15;0.93;;;15.60;99.90;;;;;;4966741;28;20516;-40
2022/07/16 05:07:26;;;;;;;3.92;0.77;;;15.60;99.90;;;;;;4967447;28;21619;-42
2022/07/16 05:09:51;;;;;;;3.45;0.50;;;15.60;99.90;;;;;;4968198;28;20397;-43
2022/07/16 05:12:17;;;;;;;4.57;0.93;;;15.60;99.90;;;;;;4966398;28;20540;-41
2022/07/16 05:14:43;;;;;;;3.47;0.77;;;15.60;99.90;;;;;;4965178;28;20042;-40
2022/07/16 05:17:08;;;;;;;4.20;0.75;;;15.70;99.90;;;;;;4963738;28;20057;-42
2022/07/16 05:19:34;;;;;;;5.50;0.98;;;15.80;99.90;;;;;;4968132;28;20098;-42
2022/07/16 05:21:59;;;;;;;2.47;0.80;;;15.80;99.90;;;;;;4966315;28;20074;-46
2022/07/16 05:24:25;;;;;;;4.90;0.70;;;15.80;99.90;;;;;;4966789;28;20141;-42
2022/07/16 05:26:51;;;;;;;5.28;0.65;;;15.70;99.90;;;;;;4969079;28;20436;-43
2022/07/16 05:29:16;;;;;;;8.30;0.70;;;15.70;99.90;;;;;;4967170;28;20528;-43
2022/07/16 05:31:42;;;;;;;1.52;0.55;;;15.80;99.90;;;;;;4966475;28;20662;-43
2022/07/16 05:34:08;;;;;;;3.95;1.58;;;15.80;99.90;;;;;;4962828;28;20030;-44
2022/07/16 05:36:33;;;;;;;5.55;1.02;;;15.80;99.90;;;;;;4967646;28;20042;-43
2022/07/16 05:38:59;;;;;;;2.63;0.80;;;15.80;99.90;;;;;;4966326;28;20181;-42
2022/07/16 05:41:24;;;;;;;3.70;0.70;;;15.90;99.90;;;;;;4965202;28;20114;-42
2022/07/16 05:43:50;;;;;;;2.88;0.60;;;15.90;99.90;;;;;;4966701;28;20679;-47
2022/07/16 05:46:16;;;;;;;2.60;0.40;;;15.90;99.90;;;;;;4964244;28;20043;-43
2022/07/16 05:48:41;;;;;;;3.42;0.50;;;15.90;99.90;;;;;;4968001;28;20054;-45
2022/07/16 05:51:07;;;;;;;2.60;0.63;;;15.90;99.90;;;;;;4964289;28;20504;-45
2022/07/16 05:53:33;;;;;;;1.42;0.30;;;16.00;99.90;;;;;;4961597;28;20038;-41
2022/07/16 05:55:58;;;;;;;3.33;1.23;;;15.90;99.90;;;;;;4965605;28;20114;-41
2022/07/16 05:58:24;;;;;;;3.97;0.60;;;16.00;99.90;;;;;;4965559;28;20528;-41
2022/07/16 06:00:49;;;;;;;3.08;0.60;;;16.00;99.90;;;;;;4964846;28;20153;-43
2022/07/16 06:03:15;;;;;;;2.97;0.50;;;16.00;99.90;;;;;;4963568;28;20571;-42
2022/07/16 06:05:41;;;;;;;4.20;0.52;;;16.10;99.90;;;;;;4965121;28;20480;-41
2022/07/16 06:08:06;;;;;;;4.32;0.65;;;16.10;99.90;;;;;;4965440;28;21974;-41
2022/07/16 06:10:32;;;;;;;2.28;0.35;;;16.10;99.90;;;;;;4964882;28;20035;-42
2022/07/16 06:12:58;;;;;;;3.00;0.55;;;16.20;99.90;;;;;;4967055;28;20034;-43
2022/07/16 06:15:24;;;;;;;4.97;0.65;;;16.20;99.90;;;;;;4964187;28;20041;-42
2022/07/16 06:17:49;;;;;;;4.60;0.50;;;16.30;99.90;;;;;;4966166;28;20540;-41
2022/07/16 06:20:15;;;;;;;2.83;0.50;;;16.30;99.90;;;;;;4967059;28;20039;-41
2022/07/16 06:22:41;;;;;;;2.40;0.50;;;16.30;99.90;;;;;;4963804;28;20045;-42
2022/07/16 06:25:07;;;;;;;4.00;0.60;;;16.40;99.90;;;;;;4965094;28;20125;-42
2022/07/16 06:27:32;;;;;;;2.28;0.43;;;16.40;99.90;;;;;;4966305;28;20034;-42
2022/07/16 06:30:03;;;;;;;3.60;0.93;;;16.50;99.90;;;;;;4964488;28;20041;-44
2022/07/16 06:32:29;;;;;;;4.75;0.73;;;16.40;99.90;;;;;;4963911;28;20042;-46
2022/07/16 06:34:55;;;;;;;6.40;0.70;;;16.40;99.90;;;;;;4966603;28;20101;-41
2022/07/16 06:37:21;;;;;;;4.13;0.73;;;16.50;99.90;;;;;;4964592;28;20042;-47
2022/07/16 06:39:46;;;;;;;2.90;0.50;;;16.50;99.90;;;;;;4963384;28;20042;-43
2022/07/16 06:42:12;;;;;;;4.05;0.73;;;16.60;99.90;;;;;;4965949;28;20031;-44
2022/07/16 06:44:40;;;;;;;6.22;0.60;;;16.70;99.90;;;;;;4964487;28;20097;-45
2022/07/16 06:47:06;;;;;;;3.35;0.40;;;16.80;99.90;;;;;;4966627;28;20101;-43
2022/07/16 06:49:31;;;;;;;3.47;0.55;;;16.90;99.40;;;;;;4968839;28;20121;-43
2022/07/16 06:51:57;;;;;;;6.20;0.45;;;17.00;98.30;;;;;;4963073;28;20441;-51
2022/07/16 06:54:23;;;;;;;4.57;0.50;;;17.10;98.10;;;;;;4968878;28;20038;-44
2022/07/16 06:56:48;;;;;;;4.60;0.75;;;17.10;98.00;;;;;;4964618;28;20133;-43
2022/07/16 06:59:14;;;;;;;8.13;0.80;;;17.30;97.90;;;;;;4965403;28;20126;-45
2022/07/16 07:01:40;;;;;;;2.75;0.40;;;17.40;97.60;;;;;;4964343;28;20137;-46
2022/07/16 07:04:05;;;;;;;5.43;0.52;;;17.70;97.40;;;;;;4964591;28;21518;-44
2022/07/16 07:06:31;;;;;;;1.73;0.40;;;17.80;96.60;;;;;;4964293;28;20063;-46
2022/07/16 07:08:57;;;;;;;3.55;0.55;;;18.00;95.00;;;;;;4963483;28;20113;-43
2022/07/16 07:11:22;;;;;;;3.67;0.88;;;18.20;93.60;;;;;;4966447;28;20045;-43
2022/07/16 07:13:48;;;;;;;1.27;0.40;;;18.40;92.90;;;;;;4961253;28;20061;-42
2022/07/16 07:16:14;;;;;;;4.38;0.43;;;18.50;91.40;;;;;;4963422;28;20113;-43
2022/07/16 07:18:40;;;;;;;3.63;0.68;;;18.70;91.00;;;;;;4966824;28;20144;-44
2022/07/16 07:21:05;;;;;;;3.25;0.40;;;18.80;91.00;;;;;;4964945;28;20049;-44
2022/07/16 07:23:31;;;;;;;4.65;0.80;;;18.70;90.00;;;;;;4964659;28;20501;-43
2022/07/16 07:25:57;;;;;;;1.95;0.35;;;18.40;90.00;;;;;;4962660;28;20492;-45
2022/07/16 07:28:23;;;;;;;3.50;0.40;;;18.20;91.00;;;;;;4967618;28;20523;-42
2022/07/16 07:30:48;;;;;;;5.65;0.63;;;17.90;91.40;;;;;;4967283;28;20062;-43
2022/07/16 07:33:14;;;;;;;4.50;0.68;;;17.70;92.10;;;;;;4962704;28;20468;-42
2022/07/16 07:35:40;;;;;;;2.92;0.45;;;17.50;92.20;;;;;;4966546;28;20042;-43
2022/07/16 07:38:06;;;;;;;4.18;0.70;;;17.40;92.60;;;;;;4963497;28;20038;-43
2022/07/16 07:40:32;;;;;;;3.83;0.55;;;17.20;93.00;;;;;;4966087;28;20503;-42
2022/07/16 07:42:59;;;;;;;4.93;0.60;;;17.20;93.30;;;;;;4967448;28;20070;-43
2022/07/16 07:45:26;;;;;;;1.92;0.30;;;17.30;93.70;;;;;;4968009;28;20046;-43
2022/07/16 07:47:52;;;;;;;2.45;0.45;;;17.30;93.90;;;;;;4965485;28;20059;-42
2022/07/16 07:50:17;;;;;;;5.80;0.65;;;17.30;93.60;;;;;;4968403;28;20043;-45
2022/07/16 07:52:43;;;;;;;3.40;0.50;;;17.30;93.40;;;;;;4965545;28;20133;-47
2022/07/16 07:55:09;;;;;;;3.15;0.30;;;17.30;93.50;;;;;;4964995;28;20488;-43
2022/07/16 07:57:35;;;;;;;3.40;0.52;;;17.30;92.80;;;;;;4966626;28;20130;-43
2022/07/16 08:00:01;;;;;;;5.10;0.40;;;17.30;92.30;;;;;;4968187;28;20043;-43
2022/07/16 08:02:27;;;;;;;2.75;0.50;;;17.20;91.90;;;;;;4962494;28;20031;-42
2022/07/16 08:04:52;;;;;;;2.08;0.32;;;17.20;91.80;;;;;;4966594;28;20047;-43
2022/07/16 08:07:18;;;;;;;4.32;0.52;;;17.30;92.00;;;;;;4966495;28;20051;-44
2022/07/16 08:09:44;;;;;;;3.25;0.52;;;17.50;91.70;;;;;;4980710;28;20556;-41
2022/07/16 08:12:10;;;;;;;2.10;0.55;;;17.90;91.10;;;;;;4968982;28;20101;-43
2022/07/16 08:14:36;;;;;;;2.40;0.57;;;18.20;89.60;;;;;;4968769;28;20496;-44
2022/07/16 08:17:02;;;;;;;4.05;0.35;;;18.50;87.40;;;;;;4968102;28;20039;-43
2022/07/16 08:19:27;;;;;;;4.00;0.22;;;18.70;86.90;;;;;;4970059;28;20109;-45
2022/07/16 08:21:53;;;;;;;5.05;0.80;;;19.00;85.40;;;;;;4970039;28;20527;-43
2022/07/16 08:27:04;;;;;;;4.85;0.45;;;19.20;83.80;;;;;;4970987;28;20496;-42
2022/07/16 08:29:30;;;;;;;1.67;0.43;;;19.20;83.40;;;;;;4971595;28;20038;-45
2022/07/16 08:31:56;;;;;;;3.22;0.43;;;19.10;82.60;;;;;;4972502;28;20039;-41
2022/07/16 08:34:23;;;;;;;3.90;0.30;;;18.80;81.60;;;;;;4973301;28;20524;-42
2022/07/16 08:36:50;;;;;;;2.17;0.40;;;18.60;80.90;;;;;;4971033;28;20508;-43
2022/07/16 08:39:16;;;;;;;4.53;0.50;;;18.50;81.60;;;;;;4972665;28;20049;-43
2022/07/16 08:41:43;;;;;;;3.80;0.52;;;18.60;80.50;;;;;;4972180;28;20043;-43
2022/07/16 08:44:11;;;;;;;3.85;0.50;;;18.70;79.30;;;;;;4969637;28;20046;-42
2022/07/16 08:46:37;;;;;;;3.53;0.30;;;18.90;79.60;;;;;;4968219;28;20134;-42
2022/07/16 08:49:03;;;;;;;4.28;0.60;;;19.10;76.40;;;;;;4962183;28;20046;-42
2022/07/16 08:51:34;;;;;;;2.03;0.40;;;19.20;75.20;;;;;;4971886;28;20050;-44
2022/07/16 08:54:20;;;;;;;2.80;0.47;;;19.20;75.50;;;;;;4970790;28;20047;-43
2022/07/16 08:56:46;;;;;;;1.63;0.30;;;19.10;71.10;;;;;;4971112;28;20038;-43
2022/07/16 08:59:15;;;;;;;2.65;0.50;;;18.90;73.90;;;;;;4971540;28;20086;-44
2022/07/16 09:01:41;;;;;;;4.03;0.50;;;18.80;75.30;;;;;;4969153;28;20100;-43
2022/07/16 09:04:07;;;;;;;4.63;0.40;;;18.80;75.70;;;;;;4966985;28;20046;-43
2022/07/16 09:06:33;;;;;;;0.55;0.20;;;18.90;75.50;;;;;;4970286;28;20047;-45
2022/07/16 09:08:59;;;;;;;2.58;0.40;;;19.10;72.70;;;;;;4971531;28;20038;-45
2022/07/16 09:11:31;;;;;;;3.25;0.50;;;19.40;71.80;;;;;;4971374;28;20042;-45
2022/07/16 09:14:16;;;;;;;2.75;0.20;;;19.60;70.20;;;;;;4971779;28;20500;-42
2022/07/16 09:16:53;;;;;;;3.63;0.60;;;19.80;64.60;;;;;;4968771;28;20089;-43
2022/07/16 09:19:20;;;;;;;2.83;0.40;;;19.70;62.50;;;;;;4971638;28;20050;-44
2022/07/16 09:22:06;;;;;;;3.85;0.40;;;19.60;66.60;;;;;;4971611;28;20042;-43
2022/07/16 09:24:40;;;;;;;2.38;0.40;;;19.80;64.80;;;;;;4967763;28;20042;-42
2022/07/16 09:27:22;;;;;;;3.95;0.40;;;20.00;64.60;;;;;;4965920;28;20078;-43
2022/07/16 09:29:51;;;;;;;;;;;20.20;62.90;;;;;;4968913;28;20109;-42
2022/07/16 09:32:29;;;;;;;3.28;0.38;;;20.20;59.80;;;;;;4968743;28;19965;-42
2022/07/16 09:35:05;;;;;;;3.35;0.40;;;19.90;62.10;;;;;;4970396;28;20089;-42
2022/07/16 09:37:58;;;;;;;1.73;0.40;;;19.70;62.00;;;;;;4965202;28;20046;-42
2022/07/16 09:40:31;;;;;;;2.75;0.30;;;19.50;61.90;;;;;;4980481;28;20047;-43
2022/07/16 09:42:58;;;;;;;3.75;0.40;;;19.40;61.30;;;;;;4966578;28;20066;-42
2022/07/16 09:45:25;;;;;;;2.35;0.30;;;19.60;62.10;;;;;;4968825;28;20035;-42
2022/07/16 09:47:50;;;;;;;1.70;0.25;;;19.70;61.50;;;;;;4970422;28;20050;-42
2022/07/16 09:50:17;;;;;;;1.52;0.30;;;20.00;61.60;;;;;;4965430;28;20058;-43
2022/07/16 09:52:43;;;;;;;1.95;0.30;;;20.30;59.00;;;;;;4963023;28;20069;-43
2022/07/16 09:55:09;;;;;;;2.67;0.32;;;20.60;56.80;;;;;;4967432;28;20086;-42
2022/07/16 09:57:36;;;;;;;2.17;0.47;;;21.00;55.30;;;;;;4966488;28;20122;-41
2022/07/16 10:00:07;;;;;;;2.30;0.50;;;21.10;53.80;;;;;;4970444;28;20435;-45
2022/07/16 10:02:33;;;;;;;2.25;0.47;;;21.00;52.70;;;;;;4970302;28;20061;-42
2022/07/16 10:04:59;;;;;;;2.92;0.47;;;20.70;52.80;;;;;;4969343;28;20054;-41
2022/07/16 10:07:25;;;;;;;2.58;0.52;;;20.50;54.30;;;;;;4968195;28;20046;-42
2022/07/16 10:09:50;;;;;;;1.05;0.20;;;20.30;55.80;;;;;;4964928;28;20053;-41
2022/07/16 10:12:19;;;;;;;2.03;0.60;;;20.40;56.50;;;;;;4966703;28;20053;-42
2022/07/16 10:14:50;;;;;;;3.65;0.40;;;20.60;55.60;;;;;;4967120;28;20041;-41
2022/07/16 10:17:22;;;;;;;3.20;0.40;;;20.80;56.20;;;;;;4967809;28;20044;-42
2022/07/16 10:20:11;;;;;;;3.95;0.40;;;20.90;54.10;;;;;;4966957;28;20082;-41
2022/07/16 10:22:43;;;;;;;0.73;0.20;;;20.80;53.20;;;;;;4967296;28;20101;-42
2022/07/16 10:25:10;;;;;;;;;;;20.50;53.10;;;;;;4964202;28;20102;-42
2022/07/16 10:27:36;;;;;;;3.38;0.32;;;20.50;51.10;;;;;;4969166;28;19933;-42
2022/07/16 10:30:19;;;;;;;1.88;0.40;;;20.80;53.70;;;;;;4971787;28;20043;-44
2022/07/16 10:33:02;;;;;;;3.08;0.30;;;21.10;51.70;;;;;;4968704;28;20054;-43
2022/07/16 10:35:32;;;;;;;1.17;0.30;;;21.30;51.30;;;;;;4969240;28;20125;-43
2022/07/16 10:38:08;;;;;;;2.10;0.40;;;21.40;51.80;;;;;;4969146;28;20551;-42
2022/07/16 10:40:36;;;;;;;4.50;0.75;;;21.50;51.00;;;;;;4966687;28;20050;-42
2022/07/16 10:43:21;;;;;;;1.48;0.30;;;21.50;51.40;;;;;;4966734;28;20058;-44
2022/07/16 10:45:55;;;;;;;2.15;0.32;;;21.50;50.30;;;;;;4968671;28;20043;-43
2022/07/16 10:48:25;;;;;;;4.68;0.28;;;21.40;51.80;;;;;;4967983;28;20085;-44
2022/07/16 10:51:20;;;;;;;2.80;0.40;;;21.20;51.00;;;;;;4969621;28;20118;-44
2022/07/16 10:53:58;;;;;;;2.47;0.30;;;21.30;51.10;;;;;;4967805;28;20117;-43
2022/07/16 10:56:40;;;;;;;2.35;0.30;;;21.20;50.40;;;;;;4968978;28;20051;-42
2022/07/16 10:59:11;;;;;;;3.30;0.40;;;21.30;50.60;;;;;;4964840;28;20202;-45
2022/07/16 11:01:39;;;;;;;4.35;0.32;;;21.60;51.60;;;;;;4966256;28;20128;-42
2022/07/16 11:04:07;;;;;;;5.15;0.40;;;21.80;50.70;;;;;;4968879;28;20047;-44
2022/07/16 11:06:33;;;;;;;1.83;0.35;;;22.00;50.50;;;;;;4968958;28;20559;-42
2022/07/16 11:09:00;;;;;;;2.25;0.35;;;22.20;50.20;;;;;;4969116;28;20508;-43
2022/07/16 11:11:37;;;;;;;3.20;0.32;;;22.30;50.40;;;;;;4969240;28;20057;-42
2022/07/16 11:14:05;;;;;;;3.13;0.63;;;22.40;50.00;;;;;;4967590;28;20121;-43
2022/07/16 11:16:31;;;;;;;3.35;0.32;;;22.30;49.20;;;;;;4967630;28;20115;-43
2022/07/16 11:19:01;;;;;;;4.03;0.40;;;22.30;49.70;;;;;;4969545;28;20050;-43
2022/07/16 11:21:27;;;;;;;1.30;0.30;;;22.50;49.70;;;;;;4969866;28;20047;-42
2022/07/16 11:23:55;;;;;;;3.10;0.43;;;22.60;48.10;;;;;;4968764;28;20057;-44
2022/07/16 11:26:22;;;;;;;5.18;0.30;;;22.70;48.50;;;;;;4969332;28;20050;-45
2022/07/16 11:29:01;;;;;;;2.38;0.47;;;22.90;49.00;;;;;;4969952;28;20047;-44
2022/07/16 11:31:32;;;;;;;3.35;0.50;;;22.80;49.20;;;;;;4970239;28;20066;-44
2022/07/16 11:34:03;;;;;;;5.10;0.40;;;22.50;50.20;;;;;;4968018;28;20049;-41
2022/07/16 11:36:36;;;;;;;2.97;0.65;;;22.10;51.10;;;;;;4968815;28;20039;-42
2022/07/16 11:39:08;;;;;;;7.40;0.90;;;21.90;52.20;;;;;;4969397;28;20138;-42
2022/07/16 11:41:35;;;;;;;;;;;22.00;53.10;;;;;;4970561;28;20118;-42
2022/07/16 11:44:12;;;;;;;5.35;0.52;;;22.30;52.00;;;;;;4967395;28;19925;-43
2022/07/16 11:46:58;;;;;;;5.13;0.50;;;22.60;49.30;;;;;;4969153;28;20078;-44
2022/07/16 11:49:44;;;;;;;1.67;0.30;;;22.70;49.80;;;;;;4967567;28;20500;-43
2022/07/16 11:52:14;;;;;;;4.13;0.40;;;22.40;51.20;;;;;;4967662;28;20138;-44
2022/07/16 11:54:41;;;;;;;5.40;0.60;;;22.10;52.10;;;;;;4968353;28;20050;-42
2022/07/16 11:57:11;;;;;;;5.45;0.52;;;22.00;53.70;;;;;;4970942;28;20051;-42
2022/07/16 11:59:49;;;;;;;3.55;0.30;;;21.90;54.80;;;;;;4966186;28;20207;-43
2022/07/16 12:02:21;;;;;;;4.28;0.50;;;21.80;55.90;;;;;;4966965;28;20047;-41
2022/07/16 12:04:52;;;;;;;2.22;0.60;;;22.10;58.70;;;;;;4972214;28;20138;-42
2022/07/16 12:07:30;;;;;;;6.32;0.60;;;22.40;57.40;;;;;;4964548;28;20046;-44
2022/07/16 12:09:57;;;;;;;3.10;0.60;;;22.70;55.90;;;;;;4968851;28;20043;-46
2022/07/16 12:12:39;;;;;;;3.65;0.40;;;23.00;53.60;;;;;;4848291;28;20563;-42
2022/07/16 12:15:12;;;;;;;3.45;0.30;;;23.40;53.30;;;;;;4985975;28;20042;-42
2022/07/16 12:17:48;;;;;;;5.25;0.80;;;23.70;52.10;;;;;;4979213;28;20076;-42
2022/07/16 12:20:25;;;;;;;2.38;0.30;;;24.00;49.70;;;;;;4985732;28;20054;-42
2022/07/16 12:23:08;;;;;;;3.08;0.50;;;23.70;49.70;;;;;;4991019;28;20053;-43
2022/07/16 12:25:39;;;;;;;2.05;0.50;;;23.50;50.40;;;;;;4985942;28;20073;-41
2022/07/16 12:28:17;;;;;;;5.78;0.52;;;23.40;51.10;;;;;;4989537;28;20034;-43
2022/07/16 12:30:52;;;;;;;4.03;0.52;;;23.40;50.10;;;;;;4985383;28;20070;-43
2022/07/16 12:33:18;;;;;;;2.67;0.30;;;23.60;49.90;;;;;;4988984;28;20051;-44
2022/07/16 12:36:12;;;;;;;3.63;0.43;;;23.80;49.60;;;;;;4984013;28;20409;-41
2022/07/16 12:38:55;;;;;;;3.72;0.40;;;23.90;48.60;;;;;;4986901;28;20047;-44
2022/07/16 12:41:26;;;;;;;2.65;0.40;;;23.90;49.00;;;;;;4986911;28;20038;-44
2022/07/16 12:44:00;;;;;;;4.20;0.40;;;24.00;48.60;;;;;;4987065;28;20042;-42
2022/07/16 12:46:48;;;;;;;2.50;0.60;;;24.10;46.80;;;;;;4985388;28;20061;-42
2022/07/16 12:49:17;;;;;;;1.83;0.30;;;24.20;45.70;;;;;;4986043;28;20042;-41
2022/07/16 12:51:45;;;;;;;3.53;0.40;;;24.20;46.60;;;;;;4989162;28;20053;-44
2022/07/16 12:54:13;;;;;;;3.60;0.43;;;24.00;46.40;;;;;;4985710;28;20050;-43
2022/07/16 12:59:25;;;;;;;3.67;0.68;;;24.20;46.10;;;;;;4988921;28;20088;-43
2022/07/16 13:01:51;;;;;;;2.70;0.65;;;24.30;46.10;;;;;;4982304;28;20030;-42